createdAt,value
2022-09-23T00:08:52.966Z,1023.39
2022-09-23T00:18:59.172Z,1023.26
2022-09-23T00:29:05.494Z,1023.22
2022-09-23T00:39:11.715Z,1023.13
2022-09-23T00:49:18.613Z,1023.06
2022-09-23T00:59:24.849Z,1022.96
2022-09-23T01:09:31.913Z,1022.89
2022-09-23T01:19:38.459Z,1022.79
2022-09-23T01:29:45.479Z,1022.78
2022-09-23T01:39:51.661Z,1022.72
2022-09-23T01:49:57.678Z,1022.70
2022-09-23T02:00:04.492Z,1022.65
2022-09-23T02:10:10.874Z,1022.57
2022-09-23T02:20:18.220Z,1022.56
2022-09-23T02:30:24.270Z,1022.43
2022-09-23T02:40:30.695Z,1022.32
2022-09-23T02:50:37.585Z,1022.31
2022-09-23T03:00:44.284Z,1022.18
2022-09-23T03:10:50.844Z,1022.12
2022-09-23T03:20:56.838Z,1021.94
2022-09-23T03:31:03.518Z,1021.90
2022-09-23T03:41:10.245Z,1021.78
2022-09-23T03:51:16.547Z,1021.79
2022-09-23T04:01:23.155Z,1021.77
2022-09-23T04:11:30.408Z,1021.71
2022-09-23T04:21:36.755Z,1021.60
2022-09-23T04:31:43.202Z,1021.58
2022-09-23T04:41:49.820Z,1021.55
2022-09-23T04:51:56.463Z,1021.53
2022-09-23T05:02:03.315Z,1021.59
2022-09-23T05:12:09.297Z,1021.49
2022-09-23T05:22:16.679Z,1021.52
2022-09-23T05:32:23.772Z,1021.48
2022-09-23T05:42:30.740Z,1021.45
2022-09-23T05:52:37.512Z,1021.43
2022-09-23T06:02:44.470Z,1021.44
2022-09-23T06:12:51.708Z,1021.54
2022-09-23T06:22:57.976Z,1021.51
2022-09-23T06:33:04.410Z,1021.51
2022-09-23T06:43:11.332Z,1021.46
2022-09-23T06:53:18.410Z,1021.46
2022-09-23T07:03:24.815Z,1021.50
2022-09-23T07:13:31.508Z,1021.55
2022-09-23T07:23:37.864Z,1021.57
2022-09-23T07:33:45.038Z,1021.61
2022-09-23T07:43:51.306Z,1021.60
2022-09-23T07:53:57.706Z,1021.60
2022-09-23T08:04:05.293Z,1021.58
2022-09-23T08:14:12.087Z,1021.56
2022-09-23T08:24:18.999Z,1021.49
2022-09-23T08:34:25.908Z,1021.46
2022-09-23T08:44:33.085Z,1021.44
2022-09-23T08:54:39.826Z,1021.28
2022-09-23T09:04:46.161Z,1021.15
2022-09-23T09:14:52.655Z,1021.13
2022-09-23T09:24:59.360Z,1021.02
2022-09-23T09:35:06.351Z,1021.02
2022-09-23T09:45:12.837Z,1020.90
2022-09-23T09:55:19.494Z,1020.73
2022-09-23T10:05:27.773Z,1020.60
2022-09-23T10:15:34.620Z,1020.57
2022-09-23T10:25:41.572Z,1020.46
2022-09-23T10:35:48.337Z,1020.48
2022-09-23T10:45:55.237Z,1020.39
2022-09-23T10:56:02.235Z,1020.37
2022-09-23T11:06:08.928Z,1020.25
2022-09-23T11:16:15.700Z,1020.12
2022-09-23T11:26:22.793Z,1020.01
2022-09-23T11:36:30.188Z,1019.88
2022-09-23T11:46:37.363Z,1019.66
2022-09-23T11:56:46.970Z,1019.57
2022-09-23T12:06:55.186Z,1019.47
2022-09-23T12:17:01.857Z,1019.36
2022-09-23T12:27:07.675Z,1019.29
2022-09-23T12:37:14.855Z,1019.22
2022-09-23T12:47:21.543Z,1019.07
2022-09-23T12:57:28.525Z,1018.99
2022-09-23T13:07:35.616Z,1018.90
2022-09-23T13:17:42.892Z,1018.77
2022-09-23T13:27:49.726Z,1018.66
2022-09-23T13:37:56.975Z,1018.56
2022-09-23T13:48:03.966Z,1018.44
2022-09-23T13:58:11.067Z,1018.20
2022-09-23T14:08:18.169Z,1018.10
2022-09-23T14:18:25.272Z,1018.08
2022-09-23T14:28:32.379Z,1017.98
2022-09-23T14:38:38.934Z,1017.85
2022-09-23T14:48:45.593Z,1017.80
2022-09-23T14:58:53.343Z,1017.77
2022-09-23T15:09:00.631Z,1017.72
2022-09-23T15:19:08.356Z,1017.71
2022-09-23T15:29:15.673Z,1017.67
2022-09-23T15:39:31.950Z,1017.61
2022-09-23T15:49:34.456Z,1017.59
2022-09-23T15:59:40.837Z,1017.47
2022-09-23T16:09:47.853Z,1017.47
2022-09-23T16:19:55.016Z,1017.47
2022-09-23T16:30:01.536Z,1017.44
2022-09-23T16:40:08.916Z,1017.41
2022-09-23T16:50:16.020Z,1017.37
2022-09-23T17:00:23.271Z,1017.33
2022-09-23T17:10:30.194Z,1017.21
2022-09-23T17:20:36.908Z,1017.19
2022-09-23T17:30:43.896Z,1017.08
2022-09-23T17:40:50.634Z,1017.15
2022-09-23T17:50:58.037Z,1017.12
2022-09-23T18:01:03.951Z,1017.16
2022-09-23T18:11:11.947Z,1017.23
2022-09-23T18:21:18.783Z,1017.22
2022-09-23T18:31:26.127Z,1017.19
2022-09-23T18:41:32.816Z,1017.15
2022-09-23T18:51:39.713Z,1017.15
2022-09-23T19:01:46.826Z,1017.15
2022-09-23T19:11:54.040Z,1017.12
2022-09-23T19:22:00.949Z,1017.13
2022-09-23T19:32:08.014Z,1017.03
2022-09-23T19:42:14.820Z,1017.00
2022-09-23T19:52:21.773Z,1016.95
2022-09-23T20:02:28.812Z,1016.88
2022-09-23T20:12:35.844Z,1016.92
2022-09-23T20:22:43.150Z,1016.92
2022-09-23T20:32:49.860Z,1016.81
2022-09-23T20:42:57.000Z,1016.71
2022-09-23T20:53:03.951Z,1016.68
2022-09-23T21:03:10.664Z,1016.71
2022-09-23T21:13:17.407Z,1016.66
2022-09-23T21:23:24.467Z,1016.54
2022-09-23T21:33:31.226Z,1016.50
2022-09-23T21:43:38.167Z,1016.45
2022-09-23T21:53:44.958Z,1016.39
2022-09-23T22:03:52.050Z,1016.34
2022-09-23T22:13:59.078Z,1016.39
2022-09-23T22:24:06.179Z,1016.31
2022-09-23T22:34:30.940Z,1016.24
2022-09-23T22:44:25.089Z,1016.19
2022-09-23T22:54:34.227Z,1016.04
2022-09-23T23:04:41.166Z,1016.08
2022-09-23T23:14:47.932Z,1016.01
2022-09-23T23:24:55.114Z,1016.00
2022-09-23T23:35:02.203Z,1015.87
2022-09-23T23:45:08.882Z,1015.78
2022-09-23T23:55:15.560Z,1015.76
